sensor_id;sensor_type;location;lat;lon;timestamp;pressure;altitude;pressure_sealevel;temperature;humidity
78182;BME280;67441;50.116;8.696;2023-04-06T00:00:08;100647.84;;;3.85;52.27
78182;BME280;67441;50.116;8.696;2023-04-06T00:00:34;100671.19;;;3.83;52.08
78182;BME280;67441;50.116;8.696;2023-04-06T00:00:59;100634.00;;;3.66;52.08
78182;BME280;67441;50.116;8.696;2023-04-06T00:01:25;100657.09;;;3.78;52.45
78182;BME280;67441;50.116;8.696;2023-04-06T00:01:50;100665.16;;;3.84;52.50
78182;BME280;67441;50.116;8.696;2023-04-06T00:02:16;100659.28;;;3.88;52.13
78182;BME280;67441;50.116;8.696;2023-04-06T00:02:41;100658.50;;;3.91;51.83
78182;BME280;67441;50.116;8.696;2023-04-06T00:03:07;100655.66;;;3.85;52.16
78182;BME280;67441;50.116;8.696;2023-04-06T00:03:32;100544.44;;;3.21;52.24
78182;BME280;67441;50.116;8.696;2023-04-06T00:03:58;100620.19;;;3.67;52.30
78182;BME280;67441;50.116;8.696;2023-04-06T00:04:23;100658.44;;;3.89;51.97
78182;BME280;67441;50.116;8.696;2023-04-06T00:04:48;100607.78;;;3.62;52.65
78182;BME280;67441;50.116;8.696;2023-04-06T00:05:13;100661.78;;;3.87;52.51
78182;BME280;67441;50.116;8.696;2023-04-06T00:05:40;100577.28;;;3.38;52.91
78182;BME280;67441;50.116;8.696;2023-04-06T00:06:05;100658.91;;;3.80;52.87
78182;BME280;67441;50.116;8.696;2023-04-06T00:06:31;100603.44;;;3.41;52.74
78182;BME280;67441;50.116;8.696;2023-04-06T00:06:56;100658.00;;;3.78;52.51
78182;BME280;67441;50.116;8.696;2023-04-06T00:07:22;100606.03;;;3.41;52.15
78182;BME280;67441;50.116;8.696;2023-04-06T00:07:47;100659.56;;;3.75;52.68
78182;BME280;67441;50.116;8.696;2023-04-06T00:08:13;100576.88;;;3.29;52.24
78182;BME280;67441;50.116;8.696;2023-04-06T00:08:38;100665.72;;;3.77;52.26
78182;BME280;67441;50.116;8.696;2023-04-06T00:09:03;100652.81;;;3.80;52.46
78182;BME280;67441;50.116;8.696;2023-04-06T00:09:29;100644.88;;;3.77;51.99
78182;BME280;67441;50.116;8.696;2023-04-06T00:09:54;100656.66;;;3.88;51.82
78182;BME280;67441;50.116;8.696;2023-04-06T00:10:20;100663.38;;;3.83;51.88
78182;BME280;67441;50.116;8.696;2023-04-06T00:10:45;100660.16;;;3.89;51.74
78182;BME280;67441;50.116;8.696;2023-04-06T00:11:11;100636.94;;;3.74;52.11
78182;BME280;67441;50.116;8.696;2023-04-06T00:11:36;100656.66;;;3.88;52.23
78182;BME280;67441;50.116;8.696;2023-04-06T00:12:02;100615.03;;;3.69;51.95
78182;BME280;67441;50.116;8.696;2023-04-06T00:12:27;100662.63;;;3.86;51.68
78182;BME280;67441;50.116;8.696;2023-04-06T00:12:53;100657.59;;;3.90;51.47
78182;BME280;67441;50.116;8.696;2023-04-06T00:13:18;100610.25;;;3.58;51.66
78182;BME280;67441;50.116;8.696;2023-04-06T00:13:44;100655.75;;;3.88;51.61
78182;BME280;67441;50.116;8.696;2023-04-06T00:14:10;100665.56;;;3.93;51.10
78182;BME280;67441;50.116;8.696;2023-04-06T00:14:35;100625.78;;;3.76;51.52
78182;BME280;67441;50.116;8.696;2023-04-06T00:15:00;100663.78;;;3.92;51.65
78182;BME280;67441;50.116;8.696;2023-04-06T00:15:26;100662.19;;;3.96;52.12
78182;BME280;67441;50.116;8.696;2023-04-06T00:15:51;100664.59;;;3.91;51.70
78182;BME280;67441;50.116;8.696;2023-04-06T00:16:18;100665.59;;;3.95;51.58
78182;BME280;67441;50.116;8.696;2023-04-06T00:16:43;100660.41;;;3.95;51.73
78182;BME280;67441;50.116;8.696;2023-04-06T00:17:09;100664.53;;;3.90;51.85
78182;BME280;67441;50.116;8.696;2023-04-06T00:17:35;100664.59;;;3.91;51.93
78182;BME280;67441;50.116;8.696;2023-04-06T00:18:00;100656.72;;;3.90;51.90
78182;BME280;67441;50.116;8.696;2023-04-06T00:18:26;100651.25;;;3.84;51.66
78182;BME280;67441;50.116;8.696;2023-04-06T00:18:51;100659.28;;;3.88;51.81
78182;BME280;67441;50.116;8.696;2023-04-06T00:19:17;100668.72;;;3.86;51.78
78182;BME280;67441;50.116;8.696;2023-04-06T00:19:42;100656.59;;;3.87;51.76
78182;BME280;67441;50.116;8.696;2023-04-06T00:20:08;100609.56;;;3.63;51.76
78182;BME280;67441;50.116;8.696;2023-04-06T00:20:33;100652.34;;;3.89;51.85
78182;BME280;67441;50.116;8.696;2023-04-06T00:20:59;100590.75;;;3.49;51.73
78182;BME280;67441;50.116;8.696;2023-04-06T00:21:24;100613.94;;;3.64;51.88
78182;BME280;67441;50.116;8.696;2023-04-06T00:21:50;100637.22;;;3.80;51.61
78182;BME280;67441;50.116;8.696;2023-04-06T00:22:16;100655.09;;;3.92;51.77
78182;BME280;67441;50.116;8.696;2023-04-06T00:22:42;100631.13;;;3.79;52.04
78182;BME280;67441;50.116;8.696;2023-04-06T00:23:07;100656.91;;;3.94;52.00
78182;BME280;67441;50.116;8.696;2023-04-06T00:23:32;100658.63;;;3.94;51.91
78182;BME280;67441;50.116;8.696;2023-04-06T00:23:57;100656.44;;;3.84;52.10
78182;BME280;67441;50.116;8.696;2023-04-06T00:24:23;100647.72;;;3.81;52.64
78182;BME280;67441;50.116;8.696;2023-04-06T00:24:48;100651.88;;;3.78;52.37
78182;BME280;67441;50.116;8.696;2023-04-06T00:25:14;100657.28;;;3.83;52.42
78182;BME280;67441;50.116;8.696;2023-04-06T00:25:40;100602.28;;;3.54;52.29
78182;BME280;67441;50.116;8.696;2023-04-06T00:26:05;100650.78;;;3.73;52.43
78182;BME280;67441;50.116;8.696;2023-04-06T00:26:31;100654.84;;;3.66;52.60
78182;BME280;67441;50.116;8.696;2023-04-06T00:26:56;100654.78;;;3.65;52.70
78182;BME280;67441;50.116;8.696;2023-04-06T00:27:21;100617.41;;;3.43;52.53
78182;BME280;67441;50.116;8.696;2023-04-06T00:27:46;100651.34;;;3.66;52.89
78182;BME280;67441;50.116;8.696;2023-04-06T00:28:12;100664.44;;;3.67;52.79
78182;BME280;67441;50.116;8.696;2023-04-06T00:28:37;100654.09;;;3.69;52.77
78182;BME280;67441;50.116;8.696;2023-04-06T00:29:03;100631.97;;;3.59;52.59
78182;BME280;67441;50.116;8.696;2023-04-06T00:29:28;100652.47;;;3.71;52.98
78182;BME280;67441;50.116;8.696;2023-04-06T00:29:53;100653.47;;;3.74;52.84
78182;BME280;67441;50.116;8.696;2023-04-06T00:30:19;100612.53;;;3.51;52.82
78182;BME280;67441;50.116;8.696;2023-04-06T00:30:45;100652.09;;;3.63;52.81
78182;BME280;67441;50.116;8.696;2023-04-06T00:31:10;100619.31;;;3.47;52.64
78182;BME280;67441;50.116;8.696;2023-04-06T00:31:35;100643.53;;;3.66;52.54
78182;BME280;67441;50.116;8.696;2023-04-06T00:32:01;100589.97;;;3.30;52.19
78182;BME280;67441;50.116;8.696;2023-04-06T00:32:26;100653.69;;;3.60;51.97
78182;BME280;67441;50.116;8.696;2023-04-06T00:32:53;100651.22;;;3.63;52.41
78182;BME280;67441;50.116;8.696;2023-04-06T00:33:18;100651.63;;;3.52;52.59
78182;BME280;67441;50.116;8.696;2023-04-06T00:33:44;100621.00;;;3.26;52.27
78182;BME280;67441;50.116;8.696;2023-04-06T00:34:10;100641.03;;;3.48;52.17
78182;BME280;67441;50.116;8.696;2023-04-06T00:34:35;100620.28;;;3.30;51.93
78182;BME280;67441;50.116;8.696;2023-04-06T00:35:04;100570.13;;;2.94;52.41
78182;BME280;67441;50.116;8.696;2023-04-06T00:35:30;100564.72;;;2.89;52.87
78182;BME280;67441;50.116;8.696;2023-04-06T00:35:55;100650.31;;;3.43;52.83
78182;BME280;67441;50.116;8.696;2023-04-06T00:36:20;100622.81;;;3.28;53.09
78182;BME280;67441;50.116;8.696;2023-04-06T00:36:46;100642.66;;;3.46;53.00
78182;BME280;67441;50.116;8.696;2023-04-06T00:37:11;100644.53;;;3.48;52.83
78182;BME280;67441;50.116;8.696;2023-04-06T00:37:37;100575.25;;;3.12;52.96
78182;BME280;67441;50.116;8.696;2023-04-06T00:38:02;100645.41;;;3.49;52.83
78182;BME280;67441;50.116;8.696;2023-04-06T00:38:28;100638.47;;;3.49;52.55
78182;BME280;67441;50.116;8.696;2023-04-06T00:38:53;100576.91;;;3.09;52.34
78182;BME280;67441;50.116;8.696;2023-04-06T00:39:18;100642.09;;;3.53;52.22
78182;BME280;67441;50.116;8.696;2023-04-06T00:39:44;100512.53;;;2.84;52.05
78182;BME280;67441;50.116;8.696;2023-04-06T00:40:09;100639.50;;;3.53;52.20
78182;BME280;67441;50.116;8.696;2023-04-06T00:40:35;100632.81;;;3.58;51.73
78182;BME280;67441;50.116;8.696;2023-04-06T00:41:00;100639.63;;;3.56;52.23
78182;BME280;67441;50.116;8.696;2023-04-06T00:41:28;100520.84;;;2.97;52.30
78182;BME280;67441;50.116;8.696;2023-04-06T00:41:55;100623.13;;;3.55;52.20
78182;BME280;67441;50.116;8.696;2023-04-06T00:42:21;100632.25;;;3.65;52.36
78182;BME280;67441;50.116;8.696;2023-04-06T00:42:51;100639.16;;;3.65;52.30
78182;BME280;67441;50.116;8.696;2023-04-06T00:43:16;100639.91;;;3.62;51.94
78182;BME280;67441;50.116;8.696;2023-04-06T00:43:42;100611.19;;;3.40;52.37
78182;BME280;67441;50.116;8.696;2023-04-06T00:44:07;100639.41;;;3.50;52.44
78182;BME280;67441;50.116;8.696;2023-04-06T00:44:32;100604.41;;;3.24;52.27
78182;BME280;67441;50.116;8.696;2023-04-06T00:44:58;100632.81;;;3.39;52.46
78182;BME280;67441;50.116;8.696;2023-04-06T00:45:24;100640.41;;;3.34;52.58
78182;BME280;67441;50.116;8.696;2023-04-06T00:45:49;100634.38;;;3.35;52.44
78182;BME280;67441;50.116;8.696;2023-04-06T00:46:15;100574.84;;;3.02;52.69
78182;BME280;67441;50.116;8.696;2023-04-06T00:46:40;100637.13;;;3.38;52.71
78182;BME280;67441;50.116;8.696;2023-04-06T00:47:07;100633.84;;;3.42;52.62
78182;BME280;67441;50.116;8.696;2023-04-06T00:47:33;100617.59;;;3.28;52.61
78182;BME280;67441;50.116;8.696;2023-04-06T00:47:58;100639.91;;;3.43;52.69
78182;BME280;67441;50.116;8.696;2023-04-06T00:48:24;100641.50;;;3.39;52.69
78182;BME280;67441;50.116;8.696;2023-04-06T00:48:49;100637.22;;;3.40;52.85
78182;BME280;67441;50.116;8.696;2023-04-06T00:49:15;100635.63;;;3.43;52.87
78182;BME280;67441;50.116;8.696;2023-04-06T00:49:40;100637.25;;;3.41;52.67
78182;BME280;67441;50.116;8.696;2023-04-06T00:50:06;100631.31;;;3.44;52.52
78182;BME280;67441;50.116;8.696;2023-04-06T00:50:32;100522.78;;;2.81;52.26
78182;BME280;67441;50.116;8.696;2023-04-06T00:50:57;100631.38;;;3.45;52.47
78182;BME280;67441;50.116;8.696;2023-04-06T00:51:23;100571.63;;;3.08;52.11
78182;BME280;67441;50.116;8.696;2023-04-06T00:51:48;100629.66;;;3.46;52.29
78182;BME280;67441;50.116;8.696;2023-04-06T00:52:14;100631.50;;;3.48;52.00
78182;BME280;67441;50.116;8.696;2023-04-06T00:52:39;100587.63;;;3.17;52.35
78182;BME280;67441;50.116;8.696;2023-04-06T00:53:05;100634.84;;;3.46;52.13
78182;BME280;67441;50.116;8.696;2023-04-06T00:53:30;100631.38;;;3.45;52.29
78182;BME280;67441;50.116;8.696;2023-04-06T00:53:55;100635.50;;;3.40;52.29
78182;BME280;67441;50.116;8.696;2023-04-06T00:54:21;100610.44;;;3.23;52.32
78182;BME280;67441;50.116;8.696;2023-04-06T00:54:46;100579.31;;;3.05;51.99
78182;BME280;67441;50.116;8.696;2023-04-06T00:55:12;100628.56;;;3.41;52.36
78182;BME280;67441;50.116;8.696;2023-04-06T00:55:38;100615.97;;;3.30;52.29
78182;BME280;67441;50.116;8.696;2023-04-06T00:56:04;100627.88;;;3.45;52.24
78182;BME280;67441;50.116;8.696;2023-04-06T00:56:30;100510.69;;;2.82;51.76
78182;BME280;67441;50.116;8.696;2023-04-06T00:56:56;100628.75;;;3.45;52.20
78182;BME280;67441;50.116;8.696;2023-04-06T00:57:21;100547.00;;;3.00;52.46
78182;BME280;67441;50.116;8.696;2023-04-06T00:57:47;100629.66;;;3.46;52.00
78182;BME280;67441;50.116;8.696;2023-04-06T00:58:12;100619.00;;;3.40;51.88
78182;BME280;67441;50.116;8.696;2023-04-06T00:58:38;100629.31;;;3.38;52.18
78182;BME280;67441;50.116;8.696;2023-04-06T00:59:03;100624.13;;;3.38;52.03
78182;BME280;67441;50.116;8.696;2023-04-06T00:59:29;100625.97;;;3.41;52.18
78182;BME280;67441;50.116;8.696;2023-04-06T00:59:55;100581.34;;;3.12;52.13
78182;BME280;67441;50.116;8.696;2023-04-06T01:00:21;100587.09;;;3.05;52.02
78182;BME280;67441;50.116;8.696;2023-04-06T01:00:46;100623.78;;;3.30;52.08
78182;BME280;67441;50.116;8.696;2023-04-06T01:01:12;100626.09;;;3.24;52.27
78182;BME280;67441;50.116;8.696;2023-04-06T01:01:37;100616.66;;;3.26;52.22
78182;BME280;67441;50.116;8.696;2023-04-06T01:02:02;100536.34;;;2.74;52.07
78182;BME280;67441;50.116;8.696;2023-04-06T01:02:28;100590.50;;;3.04;52.05
78182;BME280;67441;50.116;8.696;2023-04-06T01:02:53;100619.97;;;3.22;52.50
78182;BME280;67441;50.116;8.696;2023-04-06T01:03:19;100511.16;;;2.54;52.38
78182;BME280;67441;50.116;8.696;2023-04-06T01:03:44;100616.09;;;3.14;52.82
78182;BME280;67441;50.116;8.696;2023-04-06T01:04:13;100616.19;;;3.16;52.79
78182;BME280;67441;50.116;8.696;2023-04-06T01:04:39;100616.06;;;3.13;52.66
78182;BME280;67441;50.116;8.696;2023-04-06T01:05:05;100616.66;;;3.07;52.63
78182;BME280;67441;50.116;8.696;2023-04-06T01:05:32;100616.78;;;3.10;52.96
78182;BME280;67441;50.116;8.696;2023-04-06T01:05:58;100504.44;;;2.40;52.70
78182;BME280;67441;50.116;8.696;2023-04-06T01:06:23;100622.97;;;3.12;52.85
78182;BME280;67441;50.116;8.696;2023-04-06T01:06:49;100611.16;;;3.01;53.25
78182;BME280;67441;50.116;8.696;2023-04-06T01:07:15;100611.59;;;3.10;53.36
78182;BME280;67441;50.116;8.696;2023-04-06T01:07:40;100618.44;;;3.08;53.03
78182;BME280;67441;50.116;8.696;2023-04-06T01:08:08;100607.09;;;3.06;53.11
78182;BME280;67441;50.116;8.696;2023-04-06T01:08:34;100509.28;;;2.51;52.89
78182;BME280;67441;50.116;8.696;2023-04-06T01:08:59;100621.13;;;3.09;52.70
78182;BME280;67441;50.116;8.696;2023-04-06T01:09:27;100617.53;;;3.07;53.10
78182;BME280;67441;50.116;8.696;2023-04-06T01:09:54;100607.00;;;3.04;52.98
78182;BME280;67441;50.116;8.696;2023-04-06T01:10:23;100614.69;;;3.01;52.94
78182;BME280;67441;50.116;8.696;2023-04-06T01:10:49;100614.59;;;3.00;53.06
78182;BME280;67441;50.116;8.696;2023-04-06T01:11:15;100617.88;;;2.96;53.10
78182;BME280;67441;50.116;8.696;2023-04-06T01:11:40;100611.81;;;2.95;53.06
78182;BME280;67441;50.116;8.696;2023-04-06T01:12:06;100617.00;;;2.95;53.45
78182;BME280;67441;50.116;8.696;2023-04-06T01:12:31;100591.13;;;2.79;52.99
78182;BME280;67441;50.116;8.696;2023-04-06T01:12:56;100613.72;;;2.99;53.58
78182;BME280;67441;50.116;8.696;2023-04-06T01:13:22;100577.09;;;2.75;53.65
78182;BME280;67441;50.116;8.696;2023-04-06T01:13:47;100605.81;;;2.98;53.83
78182;BME280;67441;50.116;8.696;2023-04-06T01:14:13;100616.31;;;2.99;53.47
78182;BME280;67441;50.116;8.696;2023-04-06T01:14:38;100609.19;;;2.95;53.92
78182;BME280;67441;50.116;8.696;2023-04-06T01:15:04;100571.53;;;2.68;53.82
78182;BME280;67441;50.116;8.696;2023-04-06T01:15:32;100546.91;;;2.59;54.09
78182;BME280;67441;50.116;8.696;2023-04-06T01:15:58;100617.28;;;3.01;54.10
78182;BME280;67441;50.116;8.696;2023-04-06T01:16:24;100622.41;;;3.00;53.90
78182;BME280;67441;50.116;8.696;2023-04-06T01:16:50;100617.28;;;3.01;54.00
78182;BME280;67441;50.116;8.696;2023-04-06T01:17:15;100614.59;;;3.00;54.03
78182;BME280;67441;50.116;8.696;2023-04-06T01:17:41;100608.66;;;3.02;53.90
78182;BME280;67441;50.116;8.696;2023-04-06T01:18:08;100547.41;;;2.70;53.94
78182;BME280;67441;50.116;8.696;2023-04-06T01:18:37;100606.75;;;2.98;53.96
78182;BME280;67441;50.116;8.696;2023-04-06T01:19:10;100616.31;;;2.99;54.03
78182;BME280;67441;50.116;8.696;2023-04-06T01:19:36;100614.59;;;3.00;54.07
78182;BME280;67441;50.116;8.696;2023-04-06T01:20:01;100612.28;;;3.06;53.86
78182;BME280;67441;50.116;8.696;2023-04-06T01:20:27;100575.66;;;2.82;54.13
78182;BME280;67441;50.116;8.696;2023-04-06T01:20:52;100610.13;;;2.97;54.26
78182;BME280;67441;50.116;8.696;2023-04-06T01:21:18;100579.19;;;2.84;54.07
78182;BME280;67441;50.116;8.696;2023-04-06T01:21:43;100611.16;;;3.01;54.00
78182;BME280;67441;50.116;8.696;2023-04-06T01:22:12;100608.03;;;3.08;53.96
78182;BME280;67441;50.116;8.696;2023-04-06T01:22:38;100544.09;;;2.55;54.01
78182;BME280;67441;50.116;8.696;2023-04-06T01:23:03;100607.53;;;2.97;54.16
78182;BME280;67441;50.116;8.696;2023-04-06T01:23:32;100613.03;;;3.03;54.07
78182;BME280;67441;50.116;8.696;2023-04-06T01:23:57;100575.56;;;2.80;53.83
78182;BME280;67441;50.116;8.696;2023-04-06T01:24:22;100610.38;;;3.02;54.18
78182;BME280;67441;50.116;8.696;2023-04-06T01:24:48;100563.81;;;2.69;54.31
78182;BME280;67441;50.116;8.696;2023-04-06T01:25:13;100610.38;;;3.02;54.24
78182;BME280;67441;50.116;8.696;2023-04-06T01:25:38;100597.78;;;2.92;54.30
78182;BME280;67441;50.116;8.696;2023-04-06T01:26:03;100608.22;;;2.93;54.65
78182;BME280;67441;50.116;8.696;2023-04-06T01:26:29;100608.38;;;2.96;54.92
78182;BME280;67441;50.116;8.696;2023-04-06T01:26:55;100613.91;;;2.84;55.06
78182;BME280;67441;50.116;8.696;2023-04-06T01:27:21;100611.91;;;2.79;55.13
78182;BME280;67441;50.116;8.696;2023-04-06T01:27:46;100613.53;;;2.77;55.11
78182;BME280;67441;50.116;8.696;2023-04-06T01:28:12;100570.66;;;2.49;55.86
78182;BME280;67441;50.116;8.696;2023-04-06T01:28:37;100604.50;;;2.69;55.60
78182;BME280;67441;50.116;8.696;2023-04-06T01:29:03;100615.78;;;2.69;55.64
78182;BME280;67441;50.116;8.696;2023-04-06T01:29:28;100614.84;;;2.67;55.89
78182;BME280;67441;50.116;8.696;2023-04-06T01:29:54;100611.25;;;2.65;55.82
78182;BME280;67441;50.116;8.696;2023-04-06T01:30:19;100611.31;;;2.67;55.90
78182;BME280;67441;50.116;8.696;2023-04-06T01:30:45;100618.38;;;2.69;55.86
78182;BME280;67441;50.116;8.696;2023-04-06T01:31:11;100611.41;;;2.68;55.95
78182;BME280;67441;50.116;8.696;2023-04-06T01:31:36;100586.69;;;2.58;56.18
78182;BME280;67441;50.116;8.696;2023-04-06T01:32:02;100608.97;;;2.71;55.82
78182;BME280;67441;50.116;8.696;2023-04-06T01:32:28;100609.00;;;2.73;55.69
78182;BME280;67441;50.116;8.696;2023-04-06T01:32:53;100597.88;;;2.75;55.83
78182;BME280;67441;50.116;8.696;2023-04-06T01:33:18;100410.19;;;1.67;55.99
78182;BME280;67441;50.116;8.696;2023-04-06T01:33:44;100600.00;;;2.84;55.60
78182;BME280;67441;50.116;8.696;2023-04-06T01:34:10;100565.09;;;2.59;55.32
78182;BME280;67441;50.116;8.696;2023-04-06T01:34:35;100603.50;;;2.84;55.19
78182;BME280;67441;50.116;8.696;2023-04-06T01:35:01;100603.56;;;2.86;55.37
78182;BME280;67441;50.116;8.696;2023-04-06T01:35:26;100600.81;;;2.83;55.33
78182;BME280;67441;50.116;8.696;2023-04-06T01:35:52;100501.09;;;2.24;55.32
78182;BME280;67441;50.116;8.696;2023-04-06T01:36:17;100595.72;;;2.84;55.45
78182;BME280;67441;50.116;8.696;2023-04-06T01:36:44;100604.25;;;2.82;55.60
78182;BME280;67441;50.116;8.696;2023-04-06T01:37:09;100605.72;;;2.77;55.76
78182;BME280;67441;50.116;8.696;2023-04-06T01:37:35;100592.09;;;2.63;55.88
78182;BME280;67441;50.116;8.696;2023-04-06T01:38:00;100603.69;;;2.70;55.66
78182;BME280;67441;50.116;8.696;2023-04-06T01:38:26;100532.72;;;2.33;55.62
78182;BME280;67441;50.116;8.696;2023-04-06T01:38:51;100606.41;;;2.73;55.76
78182;BME280;67441;50.116;8.696;2023-04-06T01:39:17;100415.44;;;1.69;55.77
78182;BME280;67441;50.116;8.696;2023-04-06T01:39:43;100597.72;;;2.72;55.75
78182;BME280;67441;50.116;8.696;2023-04-06T01:40:08;100602.88;;;2.71;56.07
78182;BME280;67441;50.116;8.696;2023-04-06T01:40:34;100592.41;;;2.69;56.03
78182;BME280;67441;50.116;8.696;2023-04-06T01:40:59;100558.31;;;2.44;56.04
78182;BME280;67441;50.116;8.696;2023-04-06T01:41:25;100599.09;;;2.64;56.46
78182;BME280;67441;50.116;8.696;2023-04-06T01:41:50;100529.75;;;2.26;56.42
78182;BME280;67441;50.116;8.696;2023-04-06T01:42:15;100602.50;;;2.63;56.52
78182;BME280;67441;50.116;8.696;2023-04-06T01:42:41;100581.00;;;2.48;56.57
78182;BME280;67441;50.116;8.696;2023-04-06T01:43:07;100579.66;;;2.56;56.40
78182;BME280;67441;50.116;8.696;2023-04-06T01:43:32;100592.94;;;2.62;56.53
78182;BME280;67441;50.116;8.696;2023-04-06T01:43:58;100605.03;;;2.61;56.56
78182;BME280;67441;50.116;8.696;2023-04-06T01:44:23;100600.53;;;2.57;56.71
78182;BME280;67441;50.116;8.696;2023-04-06T01:44:48;100493.81;;;1.98;56.43
78182;BME280;67441;50.116;8.696;2023-04-06T01:45:14;100550.59;;;2.27;57.06
78182;BME280;67441;50.116;8.696;2023-04-06T01:45:40;100451.03;;;1.72;56.74
78182;BME280;67441;50.116;8.696;2023-04-06T01:46:05;100558.88;;;2.38;56.74
78182;BME280;67441;50.116;8.696;2023-04-06T01:46:30;100504.47;;;2.04;56.64
78182;BME280;67441;50.116;8.696;2023-04-06T01:46:56;100606.47;;;2.55;56.63
78182;BME280;67441;50.116;8.696;2023-04-06T01:47:21;100598.88;;;2.59;56.50
78182;BME280;67441;50.116;8.696;2023-04-06T01:47:47;100596.00;;;2.53;57.17
78182;BME280;67441;50.116;8.696;2023-04-06T01:48:12;100553.72;;;2.20;56.95
78182;BME280;67441;50.116;8.696;2023-04-06T01:48:37;100601.19;;;2.53;57.13
78182;BME280;67441;50.116;8.696;2023-04-06T01:49:03;100555.88;;;2.29;57.32
78182;BME280;67441;50.116;8.696;2023-04-06T01:49:28;100598.44;;;2.50;57.26
78182;BME280;67441;50.116;8.696;2023-04-06T01:49:54;100531.94;;;1.99;57.22
78182;BME280;67441;50.116;8.696;2023-04-06T01:50:19;100570.78;;;2.33;57.45
78182;BME280;67441;50.116;8.696;2023-04-06T01:50:44;100603.84;;;2.55;57.32
78182;BME280;67441;50.116;8.696;2023-04-06T01:51:10;100597.84;;;2.56;57.13
78182;BME280;67441;50.116;8.696;2023-04-06T01:51:35;100598.75;;;2.56;56.86
78182;BME280;67441;50.116;8.696;2023-04-06T01:52:01;100563.00;;;2.33;57.09
78182;BME280;67441;50.116;8.696;2023-04-06T01:52:26;100577.97;;;2.38;57.09
78182;BME280;67441;50.116;8.696;2023-04-06T01:52:51;100597.03;;;2.57;57.25
78182;BME280;67441;50.116;8.696;2023-04-06T01:53:17;100601.41;;;2.58;57.05
78182;BME280;67441;50.116;8.696;2023-04-06T01:53:42;100605.72;;;2.57;57.06
78182;BME280;67441;50.116;8.696;2023-04-06T01:54:07;100450.88;;;1.69;57.20
78182;BME280;67441;50.116;8.696;2023-04-06T01:54:33;100602.09;;;2.54;57.24
78182;BME280;67441;50.116;8.696;2023-04-06T01:54:58;100598.44;;;2.50;57.24
78182;BME280;67441;50.116;8.696;2023-04-06T01:55:23;100602.78;;;2.50;57.42
78182;BME280;67441;50.116;8.696;2023-04-06T01:55:49;100607.97;;;2.50;57.56
78182;BME280;67441;50.116;8.696;2023-04-06T01:56:15;100542.25;;;2.15;57.70
78182;BME280;67441;50.116;8.696;2023-04-06T01:56:40;100602.00;;;2.52;57.46
78182;BME280;67441;50.116;8.696;2023-04-06T01:57:06;100565.34;;;2.28;58.06
78182;BME280;67441;50.116;8.696;2023-04-06T01:57:31;100604.53;;;2.51;57.56
78182;BME280;67441;50.116;8.696;2023-04-06T01:57:56;100530.53;;;2.05;57.42
78182;BME280;67441;50.116;8.696;2023-04-06T01:58:22;100599.19;;;2.48;57.72
78182;BME280;67441;50.116;8.696;2023-04-06T01:58:47;100617.38;;;2.48;57.37
78182;BME280;67441;50.116;8.696;2023-04-06T01:59:12;100601.63;;;2.45;57.72
78182;BME280;67441;50.116;8.696;2023-04-06T01:59:38;100589.03;;;2.34;57.53
78182;BME280;67441;50.116;8.696;2023-04-06T02:00:03;100607.81;;;2.47;57.74
78182;BME280;67441;50.116;8.696;2023-04-06T02:00:29;100599.13;;;2.46;57.57
78182;BME280;67441;50.116;8.696;2023-04-06T02:00:54;100602.63;;;2.47;57.61
78182;BME280;67441;50.116;8.696;2023-04-06T02:01:20;100573.66;;;2.21;57.88
78182;BME280;67441;50.116;8.696;2023-04-06T02:01:45;100564.56;;;2.29;57.31
78182;BME280;67441;50.116;8.696;2023-04-06T02:02:11;100566.19;;;2.27;57.86
78182;BME280;67441;50.116;8.696;2023-04-06T02:02:37;100600.06;;;2.48;57.34
78182;BME280;67441;50.116;8.696;2023-04-06T02:03:03;100600.81;;;2.46;57.71
78182;BME280;67441;50.116;8.696;2023-04-06T02:03:28;100575.22;;;2.35;57.60
78182;BME280;67441;50.116;8.696;2023-04-06T02:03:53;100601.09;;;2.52;57.67
78182;BME280;67441;50.116;8.696;2023-04-06T02:04:19;100575.75;;;2.28;58.14
78182;BME280;67441;50.116;8.696;2023-04-06T02:04:44;100574.31;;;2.35;57.29
78182;BME280;67441;50.116;8.696;2023-04-06T02:05:10;100596.53;;;2.46;57.42
78182;BME280;67441;50.116;8.696;2023-04-06T02:05:35;100502.34;;;1.95;57.54
78182;BME280;67441;50.116;8.696;2023-04-06T02:06:03;100561.97;;;2.29;57.82
78182;BME280;67441;50.116;8.696;2023-04-06T02:06:29;100603.03;;;2.56;57.56
78182;BME280;67441;50.116;8.696;2023-04-06T02:06:55;100599.34;;;2.51;57.71
78182;BME280;67441;50.116;8.696;2023-04-06T02:07:21;100590.41;;;2.46;57.63
78182;BME280;67441;50.116;8.696;2023-04-06T02:07:46;100575.22;;;2.35;57.53
78182;BME280;67441;50.116;8.696;2023-04-06T02:08:11;100594.19;;;2.52;57.64
78182;BME280;67441;50.116;8.696;2023-04-06T02:08:37;100488.38;;;1.93;57.63
78182;BME280;67441;50.116;8.696;2023-04-06T02:09:02;100595.50;;;2.43;57.31
78182;BME280;67441;50.116;8.696;2023-04-06T02:09:27;100596.66;;;2.49;57.61
78182;BME280;67441;50.116;8.696;2023-04-06T02:09:54;100594.88;;;2.48;57.20
78182;BME280;67441;50.116;8.696;2023-04-06T02:10:20;100571.22;;;2.24;57.46
78182;BME280;67441;50.116;8.696;2023-04-06T02:10:45;100596.44;;;2.45;57.46
78182;BME280;67441;50.116;8.696;2023-04-06T02:11:11;100553.13;;;2.26;57.42
78182;BME280;67441;50.116;8.696;2023-04-06T02:11:36;100596.38;;;2.43;57.40
78182;BME280;67441;50.116;8.696;2023-04-06T02:12:01;100554.25;;;2.13;57.41
78182;BME280;67441;50.116;8.696;2023-04-06T02:12:27;100597.28;;;2.44;57.55
78182;BME280;67441;50.116;8.696;2023-04-06T02:12:52;100519.16;;;2.03;57.31
78182;BME280;67441;50.116;8.696;2023-04-06T02:13:17;100594.81;;;2.47;57.23
78182;BME280;67441;50.116;8.696;2023-04-06T02:13:43;100583.31;;;2.42;57.40
78182;BME280;67441;50.116;8.696;2023-04-06T02:14:08;100594.97;;;2.50;57.03
78182;BME280;67441;50.116;8.696;2023-04-06T02:14:33;100595.91;;;2.52;56.76
78182;BME280;67441;50.116;8.696;2023-04-06T02:14:59;100597.03;;;2.57;57.24
78182;BME280;67441;50.116;8.696;2023-04-06T02:15:25;100574.47;;;2.38;57.03
78182;BME280;67441;50.116;8.696;2023-04-06T02:15:50;100592.38;;;2.50;57.06